createdAt,value
2023-02-13T00:00:56.244Z,103051.22
2023-02-13T00:03:42.888Z,103053.13
2023-02-13T00:06:27.918Z,103051.63
2023-02-13T00:09:12.911Z,103055.22
2023-02-13T00:11:58.127Z,103046.28
2023-02-13T00:14:43.454Z,103049.25
2023-02-13T00:17:28.528Z,103055.06
2023-02-13T00:20:13.626Z,103040.66
2023-02-13T00:23:02.056Z,103046.28
2023-02-13T00:25:47.339Z,103038.13
2023-02-13T00:28:32.441Z,103045.97
2023-02-13T00:31:20.268Z,103036.69
2023-02-13T00:34:05.640Z,103040.72
2023-02-13T00:36:50.665Z,103044.41
2023-02-13T00:39:35.557Z,103040.25
2023-02-13T00:42:20.906Z,103037.38
2023-02-13T00:45:06.104Z,103045.50
2023-02-13T00:47:51.318Z,103036.78
2023-02-13T00:50:36.667Z,103035.69
2023-02-13T00:53:34.167Z,103037.25
2023-02-13T00:56:19.245Z,103035.34
2023-02-13T00:59:04.163Z,103035.47
2023-02-13T01:01:49.646Z,103033.59
2023-02-13T01:04:35.017Z,103032.69
2023-02-13T01:07:20.517Z,103030.88
2023-02-13T01:10:06.661Z,103038.72
2023-02-13T01:12:52.010Z,103028.22
2023-02-13T01:15:37.567Z,103041.19
2023-02-13T01:18:23.373Z,103026.63
2023-02-13T01:21:15.180Z,103028.31
2023-02-13T01:24:03.727Z,103035.16
2023-02-13T01:26:48.758Z,103030.13
2023-02-13T01:29:34.450Z,103031.44
2023-02-13T01:32:20.087Z,103036.56
2023-02-13T01:35:06.997Z,103032.44
2023-02-13T01:37:52.071Z,103034.13
2023-02-13T01:40:36.931Z,103029.94
2023-02-13T01:43:22.355Z,103028.25
2023-02-13T01:46:07.303Z,103029.53
2023-02-13T01:48:56.086Z,103028.53
2023-02-13T01:51:43.004Z,103018.56
2023-02-13T01:54:33.669Z,103021.53
2023-02-13T01:57:22.888Z,103017.47
2023-02-13T02:00:14.512Z,103014.69
2023-02-13T02:03:05.234Z,103017.72
2023-02-13T02:05:51.624Z,103012.25
2023-02-13T02:08:37.270Z,103016.81
2023-02-13T02:11:47.278Z,103019.09
2023-02-13T02:14:32.749Z,103016.03
2023-02-13T02:17:19.626Z,103010.31
2023-02-13T02:20:41.989Z,103009.22
2023-02-13T02:23:42.457Z,103006.84
2023-02-13T02:26:42.869Z,103001.84
2023-02-13T02:29:49.818Z,103000.94
2023-02-13T02:32:57.404Z,102998.72
2023-02-13T02:36:01.124Z,103003.53
2023-02-13T02:39:04.750Z,103002.75
2023-02-13T02:42:10.136Z,102994.84
2023-02-13T02:45:13.675Z,102997.28
2023-02-13T02:48:17.852Z,102993.22
2023-02-13T02:51:35.369Z,102990.84
2023-02-13T02:54:34.672Z,102987.00
2023-02-13T02:57:30.221Z,102983.41
2023-02-13T03:00:22.393Z,102987.41
2023-02-13T03:03:34.242Z,102983.94
2023-02-13T03:06:34.520Z,102980.53
2023-02-13T03:09:25.395Z,102978.25
2023-02-13T03:12:15.092Z,102970.25
2023-02-13T03:15:00.134Z,102975.69
2023-02-13T03:17:45.553Z,102972.75
2023-02-13T03:21:00.625Z,102973.78
2023-02-13T03:24:23.377Z,102963.56
2023-02-13T03:27:26.924Z,102961.31
2023-02-13T03:30:35.557Z,102960.91
2023-02-13T03:33:39.569Z,102968.44
2023-02-13T03:36:59.437Z,102971.28
2023-02-13T03:40:03.166Z,102963.34
2023-02-13T03:42:56.657Z,102973.09
2023-02-13T03:45:46.591Z,102971.41
2023-02-13T03:48:36.297Z,102966.81
2023-02-13T03:51:27.963Z,102978.44
2023-02-13T03:54:39.670Z,102968.03
2023-02-13T03:57:27.356Z,102969.91
2023-02-13T04:00:14.838Z,102968.63
2023-02-13T04:03:18.660Z,102977.31
2023-02-13T04:06:09.361Z,102972.38
2023-02-13T04:08:54.331Z,102971.91
2023-02-13T04:11:49.634Z,102980.28
2023-02-13T04:14:43.749Z,102977.13
2023-02-13T04:17:59.180Z,102972.09
2023-02-13T04:20:44.478Z,102979.22
2023-02-13T04:23:29.786Z,102969.94
2023-02-13T04:26:19.380Z,102969.72
2023-02-13T04:29:05.741Z,102966.81
2023-02-13T04:31:51.608Z,102975.97
2023-02-13T04:34:37.789Z,102966.56
2023-02-13T04:37:23.074Z,102974.41
2023-02-13T04:40:09.107Z,102965.88
2023-02-13T04:42:54.231Z,102963.91
2023-02-13T04:45:39.226Z,102957.41
2023-02-13T04:48:24.476Z,102953.53
2023-02-13T04:51:09.356Z,102961.19
2023-02-13T04:53:54.697Z,102955.84
2023-02-13T04:56:39.864Z,102952.06
2023-02-13T04:59:25.066Z,102957.25
2023-02-13T05:02:10.431Z,102959.16
2023-02-13T05:04:55.751Z,102954.91
2023-02-13T05:07:41.992Z,102955.09
2023-02-13T05:10:27.965Z,102956.16
2023-02-13T05:13:13.397Z,102965.09
2023-02-13T05:15:58.906Z,102970.00
2023-02-13T05:18:44.421Z,102965.94
2023-02-13T05:21:29.765Z,102963.91
2023-02-13T05:24:14.719Z,102961.69
2023-02-13T05:27:00.322Z,102961.59
2023-02-13T05:29:45.579Z,102962.34
2023-02-13T05:32:30.648Z,102961.25
2023-02-13T05:35:15.693Z,102970.25
2023-02-13T05:38:01.073Z,102968.34
2023-02-13T05:40:46.187Z,102972.75
2023-02-13T05:43:31.689Z,102966.72
2023-02-13T05:46:17.006Z,102972.97
2023-02-13T05:49:04.812Z,102984.47
2023-02-13T05:51:50.418Z,102980.78
2023-02-13T05:54:35.224Z,102980.25
2023-02-13T05:57:20.254Z,102986.81
2023-02-13T06:00:06.444Z,102981.38
2023-02-13T06:02:51.843Z,102975.41
2023-02-13T06:05:37.444Z,102983.47
2023-02-13T06:08:23.522Z,102981.69
2023-02-13T06:11:09.901Z,102985.06
2023-02-13T06:13:55.173Z,103000.84
2023-02-13T06:16:41.213Z,103000.50
2023-02-13T06:19:26.297Z,102992.53
2023-02-13T06:22:14.152Z,102996.78
2023-02-13T06:24:59.349Z,103000.91
2023-02-13T06:27:44.574Z,103004.84
2023-02-13T06:30:31.182Z,102999.25
2023-02-13T06:33:16.445Z,102999.25
2023-02-13T06:36:01.471Z,103002.59
2023-02-13T06:38:46.659Z,103006.72
2023-02-13T06:41:31.572Z,103013.09
2023-02-13T06:44:16.358Z,103014.13
2023-02-13T06:47:01.846Z,103022.63
2023-02-13T06:49:47.092Z,103016.69
2023-02-13T06:52:32.493Z,103016.00
2023-02-13T06:55:19.081Z,103019.69
2023-02-13T06:58:04.225Z,103019.88
2023-02-13T07:00:55.073Z,103021.81
2023-02-13T07:03:40.170Z,103017.47
2023-02-13T07:06:25.532Z,103027.91
2023-02-13T07:09:11.038Z,103027.56
2023-02-13T07:11:56.032Z,103033.94
2023-02-13T07:14:41.472Z,103041.44
2023-02-13T07:17:27.075Z,103047.25
2023-02-13T07:20:12.731Z,103046.94
2023-02-13T07:22:59.681Z,103050.41
2023-02-13T07:25:44.761Z,103042.69
2023-02-13T07:28:30.317Z,103048.13
2023-02-13T07:31:16.206Z,103043.00
2023-02-13T07:34:01.541Z,103046.38
2023-02-13T07:36:46.770Z,103048.38
2023-02-13T07:39:32.177Z,103052.97
2023-02-13T07:42:17.116Z,103046.47
2023-02-13T07:45:02.446Z,103049.59
2023-02-13T07:47:48.062Z,103050.94
2023-02-13T07:50:33.248Z,103053.66
2023-02-13T07:53:18.486Z,103049.28
2023-02-13T07:56:07.972Z,103051.06
2023-02-13T07:58:53.013Z,103055.56
2023-02-13T08:01:38.242Z,103056.88
2023-02-13T08:04:25.415Z,103053.63
2023-02-13T08:07:11.831Z,103057.31
2023-02-13T08:09:56.931Z,103053.97
2023-02-13T08:12:42.946Z,103043.59
2023-02-13T08:15:28.034Z,103053.66
2023-02-13T08:18:13.232Z,103051.97
2023-02-13T08:20:58.508Z,103054.63
2023-02-13T08:23:43.889Z,103054.63
2023-02-13T08:26:31.429Z,103054.09
2023-02-13T08:29:16.495Z,103053.28
2023-02-13T08:32:01.543Z,103051.16
2023-02-13T08:34:46.948Z,103052.97
2023-02-13T08:37:32.177Z,103039.09
2023-02-13T08:40:17.778Z,103041.22
2023-02-13T08:43:04.374Z,103038.72
2023-02-13T08:45:49.876Z,103035.56
2023-02-13T08:48:35.332Z,103033.59
2023-02-13T08:51:20.874Z,103033.84
2023-02-13T08:54:06.122Z,103028.22
2023-02-13T08:56:51.475Z,103030.69
2023-02-13T08:59:36.763Z,103032.91
2023-02-13T09:02:21.684Z,103035.59
2023-02-13T09:05:07.226Z,103041.41
2023-02-13T09:07:53.488Z,103039.84
2023-02-13T09:10:38.293Z,103049.66
2023-02-13T09:13:23.340Z,103055.44
2023-02-13T09:16:08.652Z,103051.28
2023-02-13T09:18:54.068Z,103047.06
2023-02-13T09:21:38.980Z,103042.53
2023-02-13T09:24:24.425Z,103038.59
2023-02-13T09:27:09.973Z,103033.84
2023-02-13T09:29:55.405Z,103047.06
2023-02-13T09:32:41.812Z,103036.72
2023-02-13T09:35:27.420Z,103020.19
2023-02-13T09:38:12.672Z,103035.66
2023-02-13T09:41:02.114Z,103024.78
2023-02-13T09:43:50.466Z,103032.53
2023-02-13T09:46:38.160Z,103029.66
2023-02-13T09:49:28.490Z,103021.66
2023-02-13T09:52:13.640Z,103018.91
2023-02-13T09:54:58.914Z,103017.13
2023-02-13T09:58:06.234Z,103021.81
2023-02-13T10:00:55.977Z,103022.69
2023-02-13T10:03:46.820Z,103023.84
2023-02-13T10:06:37.377Z,103019.63
2023-02-13T10:09:33.110Z,103022.22
2023-02-13T10:12:46.254Z,103014.31
2023-02-13T10:15:44.512Z,103022.88
2023-02-13T10:18:42.877Z,103022.16
2023-02-13T10:21:36.210Z,103019.44
2023-02-13T10:24:44.565Z,103013.81
2023-02-13T10:27:37.708Z,103004.31
2023-02-13T10:30:30.730Z,102997.72
2023-02-13T10:33:30.297Z,102990.00
2023-02-13T10:36:23.416Z,102975.94
2023-02-13T10:39:24.455Z,102953.84
2023-02-13T10:42:15.628Z,102959.78
2023-02-13T10:45:10.777Z,102951.63
2023-02-13T10:48:08.122Z,102955.28
2023-02-13T10:51:22.332Z,102937.84
2023-02-13T10:54:16.549Z,102921.66
2023-02-13T10:57:19.959Z,102919.72
2023-02-13T11:00:32.733Z,102906.75
2023-02-13T11:03:20.991Z,102898.47
2023-02-13T11:06:09.046Z,102896.91
2023-02-13T11:08:54.280Z,102894.91
2023-02-13T11:11:42.047Z,102910.50
2023-02-13T11:14:27.321Z,102896.81
2023-02-13T11:17:18.186Z,102881.50
2023-02-13T11:20:08.104Z,102878.41
2023-02-13T11:22:53.542Z,102856.69
2023-02-13T11:25:38.961Z,102863.09
2023-02-13T11:28:25.590Z,102863.81
2023-02-13T11:31:30.158Z,102868.31
2023-02-13T11:34:34.310Z,102853.34
2023-02-13T11:37:24.062Z,102847.28
2023-02-13T11:40:31.750Z,102835.47
2023-02-13T11:43:29.910Z,102835.31
2023-02-13T11:46:24.165Z,102824.69
2023-02-13T11:49:27.651Z,102796.34
2023-02-13T11:52:26.242Z,102790.03
2023-02-13T11:55:35.075Z,102783.53
2023-02-13T11:58:25.954Z,102746.69
2023-02-13T12:01:20.546Z,102728.84
2023-02-13T12:04:16.531Z,102697.88
2023-02-13T12:07:04.839Z,102648.75
2023-02-13T12:09:59.434Z,102644.38
2023-02-13T12:13:09.555Z,102690.59
2023-02-13T12:16:26.853Z,102671.53
2023-02-13T12:19:18.807Z,102682.84
2023-02-13T12:22:32.713Z,102687.28
2023-02-13T12:25:43.650Z,102688.25
2023-02-13T12:28:54.430Z,102694.44
2023-02-13T12:31:51.257Z,102656.88
2023-02-13T12:35:10.804Z,102641.59
2023-02-13T12:38:01.887Z,102629.50
2023-02-13T12:40:53.233Z,102582.41
2023-02-13T12:44:33.639Z,102542.09
2023-02-13T12:47:30.150Z,102615.41
2023-02-13T12:50:52.460Z,102601.47
2023-02-13T12:54:11.813Z,102591.09
2023-02-13T12:57:12.510Z,102624.38
2023-02-13T13:00:26.026Z,102526.50
2023-02-13T13:03:35.414Z,102535.31
2023-02-13T13:06:35.810Z,102514.28
2023-02-13T13:09:33.336Z,102580.19
2023-02-13T13:12:30.746Z,102544.47
2023-02-13T13:15:50.075Z,102549.59
2023-02-13T13:18:54.250Z,102532.69
2023-02-13T13:22:14.971Z,102566.22
2023-02-13T13:25:24.702Z,102531.59
2023-02-13T13:28:22.211Z,102573.88
2023-02-13T13:31:08.398Z,102521.41
2023-02-13T13:33:58.257Z,102525.41
2023-02-13T13:36:50.233Z,102542.16
2023-02-13T13:39:47.300Z,102565.28
2023-02-13T13:42:41.756Z,102555.22
2023-02-13T13:45:50.158Z,102567.09
2023-02-13T13:48:54.517Z,102563.34
2023-02-13T13:51:39.620Z,102545.91
2023-02-13T13:54:33.157Z,102540.38
2023-02-13T13:57:25.782Z,102556.06
2023-02-13T14:00:14.014Z,102540.47
2023-02-13T14:02:59.721Z,102572.25
2023-02-13T14:06:12.451Z,102540.63
2023-02-13T14:09:21.902Z,102512.47
2023-02-13T14:12:46.795Z,102561.97
2023-02-13T14:15:34.646Z,102556.03
2023-02-13T14:18:23.838Z,102564.91
2023-02-13T14:21:09.687Z,102565.56
2023-02-13T14:23:55.179Z,102617.16
2023-02-13T14:26:41.224Z,102578.13
2023-02-13T14:29:29.966Z,102567.38
2023-02-13T14:32:29.394Z,102543.72
2023-02-13T14:35:22.619Z,102546.75
2023-02-13T14:38:23.369Z,102572.31
2023-02-13T14:41:46.802Z,102560.75
2023-02-13T14:44:46.437Z,102559.66
2023-02-13T14:47:37.233Z,102505.44
2023-02-13T14:50:22.201Z,102513.19
2023-02-13T14:53:16.818Z,102558.81
2023-02-13T14:56:07.081Z,102544.13
2023-02-13T14:59:15.772Z,102527.50
2023-02-13T15:02:12.362Z,102502.88
2023-02-13T15:05:00.038Z,102497.63
2023-02-13T15:08:15.270Z,102543.06
2023-02-13T15:11:00.865Z,102550.91
2023-02-13T15:13:46.418Z,102534.88
2023-02-13T15:16:31.903Z,102555.78
2023-02-13T15:19:19.591Z,102566.03
2023-02-13T15:22:06.359Z,102594.66
2023-02-13T15:24:52.139Z,102583.06
2023-02-13T15:27:46.592Z,102557.13
2023-02-13T15:30:34.632Z,102557.22
2023-02-13T15:33:22.602Z,102520.31
2023-02-13T15:36:25.204Z,102545.03
2023-02-13T15:39:17.057Z,102528.28
2023-02-13T15:42:20.462Z,102539.31
2023-02-13T15:45:13.066Z,102571.44
2023-02-13T15:47:58.409Z,102581.88
2023-02-13T15:50:44.280Z,102612.25
2023-02-13T15:53:29.991Z,102627.00
2023-02-13T15:56:15.326Z,102641.50
2023-02-13T15:59:02.705Z,102647.38
2023-02-13T16:01:50.888Z,102630.13
2023-02-13T16:04:37.840Z,102648.16
2023-02-13T16:07:23.061Z,102639.28
2023-02-13T16:10:26.753Z,102639.16
2023-02-13T16:13:18.014Z,102642.06
2023-02-13T16:16:09.626Z,102670.16
2023-02-13T16:18:54.846Z,102668.94
2023-02-13T16:21:39.849Z,102683.47
2023-02-13T16:24:26.743Z,102685.78
2023-02-13T16:27:19.167Z,102675.91
2023-02-13T16:30:19.296Z,102681.41
2023-02-13T16:33:16.604Z,102692.34
2023-02-13T16:36:11.041Z,102696.34
2023-02-13T16:38:56.460Z,102693.19
2023-02-13T16:41:41.442Z,102708.44
2023-02-13T16:44:32.178Z,102711.19
2023-02-13T16:47:23.402Z,102720.06
2023-02-13T16:50:14.951Z,102737.16
2023-02-13T16:53:03.281Z,102743.47
2023-02-13T16:55:57.471Z,102749.47
2023-02-13T16:58:42.869Z,102758.81
2023-02-13T17:01:28.390Z,102749.63
2023-02-13T17:04:22.650Z,102754.78
2023-02-13T17:07:23.320Z,102761.38
2023-02-13T17:10:23.023Z,102768.94
2023-02-13T17:13:17.789Z,102765.75
2023-02-13T17:16:02.838Z,102778.59
2023-02-13T17:18:48.167Z,102788.47
2023-02-13T17:21:33.648Z,102793.81
2023-02-13T17:24:18.897Z,102804.19
2023-02-13T17:27:04.187Z,102813.03
2023-02-13T17:29:49.554Z,102809.06
2023-02-13T17:32:36.242Z,102816.31
2023-02-13T17:35:21.306Z,102823.84
2023-02-13T17:38:08.722Z,102820.31
2023-02-13T17:40:54.090Z,102817.16
2023-02-13T17:43:39.193Z,102816.38
2023-02-13T17:46:24.783Z,102828.66
2023-02-13T17:49:10.104Z,102815.28
2023-02-13T17:51:55.548Z,102811.78
2023-02-13T17:54:41.214Z,102808.81
2023-02-13T17:57:26.253Z,102807.19
2023-02-13T18:00:12.035Z,102801.59
2023-02-13T18:02:59.293Z,102801.66
2023-02-13T18:05:48.168Z,102790.28
2023-02-13T18:08:33.283Z,102793.75
2023-02-13T18:11:18.663Z,102797.81
2023-02-13T18:14:04.244Z,102799.00
2023-02-13T18:16:49.238Z,102801.06
2023-02-13T18:19:34.747Z,102802.97
2023-02-13T18:22:19.935Z,102810.06
2023-02-13T18:25:05.968Z,102821.72
2023-02-13T18:27:51.247Z,102821.81
2023-02-13T18:30:36.743Z,102814.38
2023-02-13T18:33:21.930Z,102807.50
2023-02-13T18:36:06.985Z,102811.88
2023-02-13T18:38:52.403Z,102807.28
2023-02-13T18:41:37.260Z,102806.28
2023-02-13T18:44:28.433Z,102805.06
2023-02-13T18:47:14.066Z,102804.97
2023-02-13T18:49:59.584Z,102808.84
2023-02-13T18:52:44.915Z,102805.72
2023-02-13T18:55:30.438Z,102806.34
2023-02-13T18:58:15.843Z,102803.66
2023-02-13T19:01:09.157Z,102806.84
2023-02-13T19:03:54.202Z,102803.22
2023-02-13T19:06:40.805Z,102802.28
2023-02-13T19:09:26.064Z,102804.25
2023-02-13T19:12:11.730Z,102795.50
2023-02-13T19:14:57.121Z,102784.59
2023-02-13T19:17:42.242Z,102791.00
2023-02-13T19:20:27.375Z,102783.47
2023-02-13T19:23:12.834Z,102785.09
2023-02-13T19:25:58.399Z,102778.59
2023-02-13T19:28:43.884Z,102791.41
2023-02-13T19:31:31.138Z,102804.94
2023-02-13T19:34:16.487Z,102811.75
2023-02-13T19:37:01.533Z,102808.63
2023-02-13T19:39:46.992Z,102808.38
2023-02-13T19:42:32.238Z,102810.41
2023-02-13T19:45:17.542Z,102809.41
2023-02-13T19:48:02.534Z,102803.28
2023-02-13T19:50:48.025Z,102798.06
2023-02-13T19:53:33.942Z,102789.22
2023-02-13T19:56:19.470Z,102790.91
2023-02-13T19:59:06.479Z,102781.31
2023-02-13T20:01:51.666Z,102784.63
2023-02-13T20:04:36.976Z,102790.22
2023-02-13T20:07:22.171Z,102802.78
2023-02-13T20:10:08.560Z,102807.91
2023-02-13T20:12:54.034Z,102814.78
2023-02-13T20:15:40.639Z,102814.63
2023-02-13T20:18:25.784Z,102814.13
2023-02-13T20:21:16.395Z,102824.09
2023-02-13T20:24:02.106Z,102825.13
2023-02-13T20:26:47.646Z,102827.31
2023-02-13T20:29:32.653Z,102829.84
2023-02-13T20:32:18.060Z,102828.41
2023-02-13T20:35:03.693Z,102827.50
2023-02-13T20:37:48.870Z,102816.66
2023-02-13T20:40:34.366Z,102818.59
2023-02-13T20:43:20.935Z,102811.69
2023-02-13T20:46:07.157Z,102809.22
2023-02-13T20:48:52.443Z,102808.63
2023-02-13T20:51:37.868Z,102809.78
2023-02-13T20:54:23.040Z,102820.16
2023-02-13T20:57:08.542Z,102823.75
2023-02-13T20:59:53.811Z,102824.41
2023-02-13T21:02:39.350Z,102829.22
2023-02-13T21:05:24.671Z,102822.75
2023-02-13T21:08:10.316Z,102824.50
2023-02-13T21:11:01.158Z,102828.19
2023-02-13T21:13:47.124Z,102817.38
2023-02-13T21:16:38.249Z,102811.69
2023-02-13T21:19:23.505Z,102808.31
2023-02-13T21:22:08.565Z,102807.78
2023-02-13T21:24:54.123Z,102805.38
2023-02-13T21:27:39.426Z,102801.88
2023-02-13T21:30:24.802Z,102810.72
2023-02-13T21:33:10.218Z,102807.28
2023-02-13T21:36:07.671Z,102810.84
2023-02-13T21:38:53.027Z,102811.97
2023-02-13T21:41:43.169Z,102821.31
2023-02-13T21:44:28.326Z,102824.78
2023-02-13T21:47:13.753Z,102831.97
2023-02-13T21:49:59.110Z,102830.47
2023-02-13T21:52:44.732Z,102836.22
2023-02-13T21:55:30.021Z,102831.94
2023-02-13T21:58:15.312Z,102833.84
2023-02-13T22:01:01.752Z,102830.03
2023-02-13T22:03:48.056Z,102835.41
2023-02-13T22:06:35.892Z,102836.06
2023-02-13T22:09:21.840Z,102838.59
2023-02-13T22:12:07.208Z,102831.34
2023-02-13T22:14:54.265Z,102832.72
2023-02-13T22:17:39.482Z,102831.94
2023-02-13T22:20:25.518Z,102838.06
2023-02-13T22:23:10.728Z,102839.59
2023-02-13T22:25:56.176Z,102853.06
2023-02-13T22:28:41.718Z,102851.38
2023-02-13T22:31:27.920Z,102852.16
2023-02-13T22:34:13.534Z,102854.31
2023-02-13T22:36:58.944Z,102849.34
2023-02-13T22:39:44.191Z,102844.34
2023-02-13T22:42:29.817Z,102846.78
2023-02-13T22:45:15.071Z,102849.47
2023-02-13T22:48:00.615Z,102853.03
2023-02-13T22:50:45.684Z,102852.91
2023-02-13T22:53:31.788Z,102853.41
2023-02-13T22:56:17.205Z,102850.69
2023-02-13T22:59:02.620Z,102852.84
2023-02-13T23:01:48.018Z,102849.94
2023-02-13T23:04:33.447Z,102848.66
2023-02-13T23:07:18.837Z,102846.09
2023-02-13T23:10:04.996Z,102838.97
2023-02-13T23:12:49.981Z,102835.22
2023-02-13T23:15:36.267Z,102835.22
2023-02-13T23:18:21.373Z,102832.44
2023-02-13T23:21:07.747Z,102827.06
2023-02-13T23:23:53.213Z,102818.09
2023-02-13T23:26:38.135Z,102822.69
2023-02-13T23:29:23.661Z,102824.97
2023-02-13T23:32:09.136Z,102818.41
2023-02-13T23:34:54.497Z,102825.03
2023-02-13T23:37:39.698Z,102811.47
2023-02-13T23:40:24.955Z,102810.03
2023-02-13T23:43:10.451Z,102805.03
2023-02-13T23:45:55.931Z,102797.34
2023-02-13T23:48:41.375Z,102801.91
2023-02-13T23:51:26.869Z,102814.94
2023-02-13T23:54:17.210Z,102812.06
2023-02-13T23:57:02.562Z,102815.50
2023-02-13T23:59:47.464Z,102812.34
